Time;durP1;ratioP1;P1;durP2;ratioP2;P2;SDS_P1;SDS_P2;PMS_P1;PMS_P2;Temp;Humidity;BMP_temperature;BMP_pressure;BME280_temperature;BME280_humidity;BME280_pressure;Samples;Min_cycle;Max_cycle;Signal;HPM_P1;HPM_P2
2022/05/20 00:00:49;;;;;;;13.77;6.53;;;8.90;99.90;;;;;;5097308;28;20031;-54
2022/05/20 00:03:17;;;;;;;11.98;5.80;;;8.80;99.90;;;;;;5097357;28;20016;-53
2022/05/20 00:05:43;;;;;;;8.85;5.45;;;8.80;99.90;;;;;;5097451;28;20056;-53
2022/05/20 00:08:09;;;;;;;14.35;6.10;;;8.70;99.90;;;;;;5097512;28;20036;-53
2022/05/20 00:10:36;;;;;;;11.43;6.03;;;8.50;99.90;;;;;;5097280;28;20032;-54
2022/05/20 00:13:03;;;;;;;10.00;5.47;;;8.60;99.90;;;;;;5097307;28;20024;-53
2022/05/20 00:15:30;;;;;;;12.43;5.43;;;8.60;99.90;;;;;;5097133;28;20389;-53
2022/05/20 00:17:56;;;;;;;10.32;5.40;;;8.70;99.90;;;;;;5097428;28;20043;-54
2022/05/20 00:20:26;;;;;;;8.65;5.00;;;8.70;99.90;;;;;;5097292;28;20039;-53
2022/05/20 00:22:52;;;;;;;14.93;5.05;;;8.70;99.90;;;;;;5096649;28;20346;-53
2022/05/20 00:26:06;;;;;;;9.25;4.85;;;8.70;99.90;;;;;;5097075;28;20043;-53
2022/05/20 00:28:07;;;;;;;7.55;4.65;;;8.60;99.90;;;;;;5096282;28;20067;-53
2022/05/20 00:30:34;;;;;;;13.05;4.78;;;8.70;99.90;;;;;;5097092;28;20051;-53
2022/05/20 00:33:00;;;;;;;12.65;5.47;;;8.60;99.90;;;;;;5096800;28;20561;-53
2022/05/20 00:35:26;;;;;;;10.85;5.30;;;8.60;99.90;;;;;;5096700;28;20104;-54
2022/05/20 00:37:53;;;;;;;11.13;5.55;;;8.60;99.90;;;;;;5096529;28;20085;-53
2022/05/20 00:40:23;;;;;;;14.85;6.07;;;8.60;99.90;;;;;;5096846;28;20099;-53
2022/05/20 00:42:50;;;;;;;13.10;5.63;;;8.50;99.90;;;;;;5096769;28;20078;-53
2022/05/20 00:45:17;;;;;;;11.57;5.75;;;8.40;99.90;;;;;;5096487;28;20032;-53
2022/05/20 00:47:43;;;;;;;13.88;5.82;;;8.40;99.90;;;;;;5096780;28;20024;-53
2022/05/20 00:50:14;;;;;;;10.65;5.57;;;8.40;99.90;;;;;;5096385;28;20473;-53
2022/05/20 00:52:44;;;;;;;11.35;5.75;;;8.40;99.90;;;;;;5096395;28;20394;-53
2022/05/20 00:55:14;;;;;;;13.88;6.35;;;8.40;99.90;;;;;;5096642;28;20032;-53
2022/05/20 00:57:45;;;;;;;10.38;5.88;;;8.40;99.90;;;;;;5096256;28;20032;-53
2022/05/20 01:00:20;;;;;;;11.20;5.05;;;8.50;99.90;;;;;;5096462;28;20020;-53
2022/05/20 01:02:49;;;;;;;10.23;5.32;;;8.40;99.90;;;;;;5096541;28;20020;-53
2022/05/20 01:05:31;;;;;;;9.35;4.63;;;8.40;99.90;;;;;;5096173;28;20012;-53
2022/05/20 01:07:59;;;;;;;9.98;4.68;;;8.40;99.90;;;;;;5096203;28;20052;-53
2022/05/20 01:10:25;;;;;;;7.22;4.28;;;8.40;99.90;;;;;;5096139;28;20492;-53
2022/05/20 01:12:53;;;;;;;8.93;4.30;;;8.40;99.90;;;;;;5095920;28;20107;-53
2022/05/20 01:15:19;;;;;;;12.25;5.28;;;8.40;99.90;;;;;;5096204;28;20032;-53
2022/05/20 01:17:48;;;;;;;9.13;4.90;;;8.40;99.90;;;;;;5095891;28;20381;-53
2022/05/20 01:20:19;;;;;;;11.65;6.00;;;8.30;99.90;;;;;;5095869;28;20028;-53
2022/05/20 01:22:54;;;;;;;15.88;5.38;;;8.30;99.90;;;;;;5095976;28;20051;-53
2022/05/20 01:25:22;;;;;;;14.45;5.85;;;8.20;99.90;;;;;;5095793;28;20031;-53
2022/05/20 01:27:48;;;;;;;10.05;4.97;;;8.20;99.90;;;;;;5095866;28;20698;-53
2022/05/20 01:30:17;;;;;;;9.48;5.00;;;8.10;99.90;;;;;;5095929;28;20028;-53
2022/05/20 01:32:44;;;;;;;7.75;4.20;;;8.10;99.90;;;;;;5095732;28;20115;-53
2022/05/20 01:35:17;;;;;;;8.50;4.25;;;8.10;99.90;;;;;;5095849;28;20408;-53
2022/05/20 01:37:43;;;;;;;7.70;4.38;;;8.10;99.90;;;;;;5095400;28;20064;-53
2022/05/20 01:40:11;;;;;;;7.68;4.07;;;8.10;99.90;;;;;;5095537;28;20027;-53
2022/05/20 01:42:48;;;;;;;8.18;4.03;;;8.00;99.90;;;;;;5096023;28;20039;-53
2022/05/20 01:45:42;;;;;;;9.65;4.15;;;7.90;99.90;;;;;;5095356;28;20550;-53
2022/05/20 01:48:16;;;;;;;9.02;4.10;;;7.90;99.90;;;;;;5095434;28;20036;-53
2022/05/20 01:50:49;;;;;;;5.90;3.67;;;7.70;99.90;;;;;;5095426;28;20053;-53
2022/05/20 01:53:25;;;;;;;9.50;4.50;;;7.80;99.90;;;;;;5095360;28;20024;-53
2022/05/20 01:55:55;;;;;;;8.25;3.92;;;7.70;99.90;;;;;;5095195;28;20471;-53
2022/05/20 01:58:57;;;;;;;8.43;4.38;;;7.70;99.90;;;;;;5095331;28;20024;-53
2022/05/20 02:01:47;;;;;;;12.60;4.78;;;7.60;99.90;;;;;;5095251;28;20078;-53
2022/05/20 02:04:20;;;;;;;6.53;3.92;;;7.60;99.90;;;;;;5094747;28;20084;-53
2022/05/20 02:06:52;;;;;;;7.18;3.90;;;7.60;99.90;;;;;;5095452;28;20354;-53
2022/05/20 02:09:24;;;;;;;11.13;4.55;;;7.50;99.90;;;;;;5095039;28;20089;-53
2022/05/20 02:11:54;;;;;;;8.10;4.38;;;7.50;99.90;;;;;;5095062;28;20028;-53
2022/05/20 02:14:29;;;;;;;9.80;4.03;;;7.50;99.90;;;;;;5095073;28;20084;-53
2022/05/20 02:17:20;;;;;;;6.15;4.05;;;7.40;99.90;;;;;;5094852;28;20028;-53
2022/05/20 02:19:52;;;;;;;6.60;4.03;;;7.40;99.90;;;;;;5095023;28;20069;-54
2022/05/20 02:22:23;;;;;;;7.22;3.72;;;7.30;99.90;;;;;;5094800;28;20024;-53
2022/05/20 02:24:50;;;;;;;6.68;4.32;;;7.20;99.90;;;;;;5094676;28;20032;-53
2022/05/20 02:27:28;;;;;;;8.40;4.65;;;7.20;99.90;;;;;;5094913;28;20103;-53
2022/05/20 02:30:07;;;;;;;10.40;4.45;;;7.20;99.90;;;;;;5094669;28;20138;-53
2022/05/20 02:32:43;;;;;;;7.25;4.40;;;7.10;99.90;;;;;;5094713;28;20125;-53
2022/05/20 02:35:09;;;;;;;10.70;5.30;;;7.10;99.90;;;;;;5094620;28;20028;-53
2022/05/20 02:37:37;;;;;;;10.35;6.00;;;7.10;99.90;;;;;;5094265;28;20044;-53
2022/05/20 02:40:06;;;;;;;13.18;9.65;;;7.10;99.90;;;;;;5094521;28;20397;-53
2022/05/20 02:42:32;;;;;;;19.00;11.52;;;7.00;99.90;;;;;;5094628;28;20135;-53
2022/05/20 02:45:00;;;;;;;11.73;8.80;;;6.90;99.90;;;;;;5094437;28;20039;-53
2022/05/20 02:47:31;;;;;;;9.35;6.85;;;6.90;99.90;;;;;;5094631;28;20028;-53
2022/05/20 02:50:02;;;;;;;11.38;6.00;;;6.90;99.90;;;;;;5094704;28;20024;-53
2022/05/20 02:52:28;;;;;;;10.23;5.28;;;6.90;99.90;;;;;;5094563;28;20024;-53
2022/05/20 02:54:54;;;;;;;7.63;4.70;;;6.90;99.90;;;;;;5094541;28;20526;-53
2022/05/20 02:57:20;;;;;;;9.73;5.07;;;6.80;99.90;;;;;;5094596;28;20036;-53
2022/05/20 03:05:16;;;;;;;7.30;4.32;;;6.90;99.90;;;;;;5094174;28;20461;-53
2022/05/20 03:07:42;;;;;;;9.90;4.35;;;6.90;99.90;;;;;;5094300;28;20404;-53
2022/05/20 03:10:08;;;;;;;10.75;4.57;;;6.90;99.90;;;;;;5094301;28;20048;-53
2022/05/20 03:12:35;;;;;;;10.48;5.00;;;6.90;99.90;;;;;;5094361;28;20039;-53
2022/05/20 03:15:07;;;;;;;7.97;4.20;;;6.90;99.90;;;;;;5097212;28;20051;-53
2022/05/20 03:17:34;;;;;;;8.25;4.70;;;6.90;99.90;;;;;;5098489;28;20032;-53
2022/05/20 03:20:00;;;;;;;8.40;3.97;;;6.80;99.90;;;;;;5098205;28;20016;-53
2022/05/20 03:22:26;;;;;;;7.70;4.07;;;6.80;99.90;;;;;;5098205;28;20028;-53
2022/05/20 03:24:52;;;;;;;7.38;3.92;;;6.80;99.90;;;;;;5098343;28;20028;-53
2022/05/20 03:27:18;;;;;;;7.35;4.03;;;6.70;99.90;;;;;;5098169;28;20040;-53
2022/05/20 03:29:45;;;;;;;7.15;3.88;;;6.70;99.90;;;;;;5098063;28;20054;-53
2022/05/20 03:32:12;;;;;;;9.40;4.13;;;6.80;99.90;;;;;;5098269;28;20031;-53
2022/05/20 03:34:39;;;;;;;5.95;4.15;;;6.80;99.90;;;;;;5098053;28;20024;-53
2022/05/20 03:37:05;;;;;;;7.20;4.22;;;6.80;99.90;;;;;;5097609;28;20056;-53
2022/05/20 03:39:32;;;;;;;9.85;5.10;;;6.80;99.90;;;;;;5097960;28;20385;-53
2022/05/20 03:41:58;;;;;;;7.20;4.13;;;6.80;99.90;;;;;;5097844;28;20502;-53
2022/05/20 03:44:24;;;;;;;6.93;4.70;;;6.90;99.90;;;;;;5098034;28;20108;-53
2022/05/20 03:46:53;;;;;;;8.70;4.93;;;6.90;99.90;;;;;;5097622;28;20071;-53
2022/05/20 03:49:21;;;;;;;9.32;4.20;;;7.00;99.90;;;;;;5097778;28;20031;-53
2022/05/20 03:51:48;;;;;;;7.88;4.60;;;7.00;99.90;;;;;;5097656;28;20028;-53
2022/05/20 03:54:16;;;;;;;9.13;4.72;;;7.00;99.90;;;;;;5097692;28;20484;-53
2022/05/20 03:56:42;;;;;;;10.90;4.88;;;7.10;99.90;;;;;;5097563;28;20109;-53
2022/05/20 03:59:08;;;;;;;8.20;4.63;;;7.20;99.90;;;;;;5097337;28;20144;-53
2022/05/20 04:04:21;;;;;;;15.50;5.43;;;7.30;99.90;;;;;;5097389;28;20036;-53
2022/05/20 04:06:47;;;;;;;18.17;5.30;;;7.40;99.90;;;;;;5097427;28;20036;-53
2022/05/20 04:09:13;;;;;;;8.15;4.68;;;7.60;99.90;;;;;;5097559;28;20393;-53
2022/05/20 04:11:39;;;;;;;8.60;4.30;;;7.60;99.90;;;;;;5097380;28;20111;-53
2022/05/20 04:14:05;;;;;;;7.30;4.55;;;7.60;99.90;;;;;;5097444;28;20028;-53
2022/05/20 04:16:31;;;;;;;9.40;4.53;;;7.70;99.90;;;;;;5097009;28;20061;-53
2022/05/20 04:18:57;;;;;;;9.43;4.68;;;7.80;99.90;;;;;;5097219;28;20028;-53
2022/05/20 04:21:23;;;;;;;16.13;5.55;;;7.80;99.90;;;;;;5097297;28;20038;-53
2022/05/20 04:23:50;;;;;;;18.27;6.32;;;7.90;99.90;;;;;;5097077;28;20426;-53
2022/05/20 04:26:16;;;;;;;18.45;6.63;;;7.90;99.90;;;;;;5096514;28;20020;-53
2022/05/20 04:28:43;;;;;;;11.90;5.03;;;8.00;99.90;;;;;;5097277;28;20039;-53
2022/05/20 04:31:11;;;;;;;14.23;5.55;;;8.00;99.90;;;;;;5097095;28;20032;-53
2022/05/20 04:33:38;;;;;;;23.50;6.72;;;8.20;99.90;;;;;;5096743;28;20028;-53
2022/05/20 04:36:06;;;;;;;16.65;7.18;;;8.30;99.90;;;;;;5096752;28;20058;-53
2022/05/20 04:38:32;;;;;;;28.85;7.55;;;8.40;99.90;;;;;;5096530;28;20028;-53
2022/05/20 04:49:12;;;;;;;22.42;6.13;;;8.80;99.90;;;;;;5096483;28;20028;-53
2022/05/20 04:51:40;;;;;;;36.15;11.50;;;9.00;99.90;;;;;;5096355;28;20035;-53
2022/05/20 04:56:52;;;;;;;22.80;8.13;;;9.00;99.90;;;;;;5096537;28;20035;-53
2022/05/20 04:59:20;;;;;;;23.02;7.32;;;9.10;99.90;;;;;;5096186;28;20036;-53
2022/05/20 05:01:48;;;;;;;22.67;7.22;;;9.30;99.90;;;;;;5096235;28;20104;-53
2022/05/20 05:04:16;;;;;;;21.50;7.60;;;9.40;99.90;;;;;;5096210;28;20016;-53
2022/05/20 05:06:42;;;;;;;22.17;8.50;;;9.50;99.90;;;;;;5095848;28;20074;-53
2022/05/20 05:09:08;;;;;;;42.85;14.90;;;9.70;99.90;;;;;;5095222;28;20028;-54
2022/05/20 05:11:39;;;;;;;20.95;9.65;;;9.90;99.90;;;;;;5095336;28;20028;-53
2022/05/20 05:14:10;;;;;;;26.85;11.45;;;10.00;99.90;;;;;;5094044;28;20032;-53
2022/05/20 05:16:37;;;;;;;38.58;13.88;;;10.10;99.90;;;;;;5083875;28;20468;-54
2022/05/20 05:19:04;;;;;;;36.70;12.93;;;10.20;99.90;;;;;;5090675;28;20466;-53
2022/05/20 05:21:30;;;;;;;34.67;12.70;;;10.30;99.90;;;;;;5089608;28;20031;-53
2022/05/20 05:24:00;;;;;;;32.97;11.10;;;10.50;99.90;;;;;;5083855;28;20016;-54
2022/05/20 05:26:28;;;;;;;26.20;10.25;;;10.70;99.90;;;;;;5082313;28;20390;-54
2022/05/20 05:28:55;;;;;;;24.17;8.95;;;10.80;99.90;;;;;;5086112;28;20028;-54
2022/05/20 05:31:21;;;;;;;40.42;8.55;;;10.90;99.90;;;;;;5092742;28;20020;-53
2022/05/20 05:33:47;;;;;;;22.17;7.40;;;11.00;99.90;;;;;;5083435;28;20028;-54
2022/05/20 05:36:13;;;;;;;28.77;8.45;;;11.10;99.90;;;;;;5080934;28;20063;-54
2022/05/20 05:38:41;;;;;;;39.67;9.23;;;11.20;99.90;;;;;;5085712;28;20028;-53
2022/05/20 05:41:08;;;;;;;28.52;9.32;;;11.30;99.90;;;;;;5095406;28;20032;-54
2022/05/20 05:43:34;;;;;;;27.45;9.70;;;11.30;99.90;;;;;;5088885;28;20068;-54
2022/05/20 05:46:00;;;;;;;30.65;10.57;;;11.50;99.90;;;;;;5093325;28;20055;-54
2022/05/20 05:48:27;;;;;;;32.78;11.13;;;11.80;99.90;;;;;;5088058;28;20031;-53
2022/05/20 05:50:55;;;;;;;26.33;9.30;;;11.90;99.90;;;;;;5095477;28;20032;-54
2022/05/20 05:53:25;;;;;;;24.58;8.35;;;12.10;99.90;;;;;;5094908;28;20032;-54
2022/05/20 05:55:56;;;;;;;28.88;9.90;;;12.30;99.90;;;;;;5095297;28;20032;-54
2022/05/20 05:58:22;;;;;;;25.23;7.25;;;12.50;99.90;;;;;;5094831;28;20484;-54
2022/05/20 06:00:48;;;;;;;26.30;8.43;;;12.70;99.90;;;;;;5094374;28;20176;-54
2022/05/20 06:03:16;;;;;;;24.08;7.97;;;12.80;99.90;;;;;;5094226;28;20107;-54
2022/05/20 06:05:42;;;;;;;27.77;9.40;;;13.10;99.90;;;;;;5092556;28;20078;-54
2022/05/20 06:08:08;;;;;;;28.50;9.30;;;13.20;99.90;;;;;;5086844;28;20032;-54
2022/05/20 06:10:35;;;;;;;18.42;7.40;;;13.40;99.90;;;;;;5075364;28;20029;-54
2022/05/20 06:13:01;;;;;;;20.70;6.97;;;13.60;99.90;;;;;;5090201;28;20119;-54
2022/05/20 06:15:29;;;;;;;28.98;8.70;;;13.70;99.90;;;;;;5091765;28;20472;-54
2022/05/20 06:17:58;;;;;;;19.50;5.95;;;14.00;99.90;;;;;;5082374;28;20028;-54
2022/05/20 06:20:25;;;;;;;15.98;6.35;;;14.20;97.40;;;;;;5094908;28;20465;-54
2022/05/20 06:22:51;;;;;;;15.75;5.15;;;14.40;99.00;;;;;;5090747;28;20019;-54
2022/05/20 06:25:18;;;;;;;17.30;6.82;;;14.60;99.50;;;;;;5079706;28;20029;-54
2022/05/20 06:27:45;;;;;;;20.63;8.07;;;14.80;98.60;;;;;;5075980;28;20039;-54
2022/05/20 06:30:16;;;;;;;17.08;7.80;;;15.00;98.50;;;;;;5080100;28;20036;-54
2022/05/20 06:32:42;;;;;;;22.52;7.63;;;15.30;99.00;;;;;;5094485;28;20098;-54
2022/05/20 06:40:44;;;;;;;14.43;6.03;;;15.90;94.60;;;;;;5083872;28;20119;-54
2022/05/20 06:43:19;;;;;;;27.45;9.30;;;16.10;90.60;;;;;;5090619;28;20081;-55
2022/05/20 06:45:47;;;;;;;25.63;8.77;;;16.40;94.80;;;;;;5094100;28;20103;-54
2022/05/20 06:48:14;;;;;;;23.77;9.10;;;16.60;92.80;;;;;;5093983;28;20050;-54
2022/05/20 06:50:41;;;;;;;21.38;8.25;;;16.80;94.20;;;;;;5089024;28;20080;-55
2022/05/20 06:53:07;;;;;;;21.45;8.23;;;17.10;90.10;;;;;;5094056;28;20473;-54
2022/05/20 06:55:34;;;;;;;23.63;7.63;;;17.30;89.00;;;;;;5093283;28;20437;-54
2022/05/20 06:58:01;;;;;;;23.70;6.45;;;17.60;93.20;;;;;;5093986;28;20026;-54
2022/05/20 07:00:28;;;;;;;20.40;6.80;;;17.90;82.90;;;;;;5084856;28;20024;-55
2022/05/20 07:02:54;;;;;;;24.63;7.72;;;18.10;79.00;;;;;;5089551;28;20164;-55
2022/05/20 07:05:20;;;;;;;16.77;7.32;;;18.50;78.90;;;;;;5088511;28;20024;-55
2022/05/20 07:07:46;;;;;;;23.90;8.02;;;18.90;80.50;;;;;;5084687;28;20470;-55
2022/05/20 07:10:14;;;;;;;17.20;7.53;;;19.30;73.80;;;;;;5079067;28;20107;-55
2022/05/20 07:12:40;;;;;;;13.77;6.60;;;19.70;75.10;;;;;;5090698;28;20110;-55
2022/05/20 07:15:08;;;;;;;16.05;6.75;;;20.00;71.30;;;;;;5084902;28;20032;-54
2022/05/20 07:17:35;;;;;;;18.73;7.28;;;20.30;66.30;;;;;;5087718;28;20063;-55
2022/05/20 07:20:02;;;;;;;19.75;6.78;;;20.20;67.00;;;;;;5076726;28;20017;-55
2022/05/20 07:22:28;;;;;;;17.42;6.72;;;20.50;68.10;;;;;;5093426;28;20469;-55
2022/05/20 07:24:55;;;;;;;21.20;7.00;;;21.00;69.50;;;;;;5083923;28;20035;-55
2022/05/20 07:27:21;;;;;;;16.80;5.90;;;21.20;65.60;;;;;;5093323;28;20036;-55
2022/05/20 07:29:47;;;;;;;16.23;6.28;;;21.40;61.90;;;;;;5091466;28;20085;-55
2022/05/20 07:32:13;;;;;;;19.23;6.13;;;21.90;65.20;;;;;;5092834;28;20028;-55
2022/05/20 07:34:39;;;;;;;16.88;5.53;;;22.10;60.20;;;;;;5093648;28;20075;-55
2022/05/20 07:37:05;;;;;;;21.90;5.78;;;22.50;56.30;;;;;;5084041;28;20047;-55
2022/05/20 07:39:34;;;;;;;21.75;7.18;;;22.70;57.70;;;;;;5077346;28;20482;-55
2022/05/20 07:42:00;;;;;;;12.68;5.35;;;23.20;58.90;;;;;;5093288;28;20025;-55
2022/05/20 07:44:26;;;;;;;17.10;5.57;;;23.60;55.50;;;;;;5086592;28;20038;-55
2022/05/20 07:46:53;;;;;;;16.90;6.53;;;23.80;56.90;;;;;;5086963;28;20028;-55
2022/05/20 07:49:19;;;;;;;14.43;4.68;;;24.00;53.70;;;;;;5084585;28;20067;-55
2022/05/20 07:51:55;;;;;;;14.93;4.93;;;24.20;51.60;;;;;;5079051;28;20448;-55
2022/05/20 07:54:24;;;;;;;25.08;5.65;;;24.50;51.80;;;;;;5089472;28;20028;-55
2022/05/20 07:56:57;;;;;;;19.98;7.28;;;24.40;52.60;;;;;;5078606;28;20205;-55
2022/05/20 07:59:49;;;;;;;10.02;4.95;;;24.10;54.40;;;;;;5076911;28;20027;-55
2022/05/20 08:02:19;;;;;;;11.60;4.68;;;24.20;51.40;;;;;;5083410;28;20540;-56
2022/05/20 08:05:01;;;;;;;11.73;5.30;;;24.20;52.00;;;;;;5081172;28;20028;-55
2022/05/20 08:07:41;;;;;;;9.77;4.32;;;24.80;53.30;;;;;;5091419;28;20031;-55
2022/05/20 08:10:19;;;;;;;22.50;5.40;;;24.90;52.50;;;;;;5088629;28;20070;-57
2022/05/20 08:12:46;;;;;;;17.65;5.13;;;25.40;51.20;;;;;;5089543;28;20032;-56
2022/05/20 08:15:14;;;;;;;13.68;4.45;;;26.00;52.20;;;;;;5085949;28;20020;-56
2022/05/20 08:17:40;;;;;;;14.60;4.93;;;26.30;50.20;;;;;;5087248;28;20020;-56
2022/05/20 08:20:13;;;;;;;10.07;4.15;;;26.50;48.90;;;;;;5087337;28;20031;-56
2022/05/20 08:22:39;;;;;;;11.38;3.95;;;26.80;46.80;;;;;;5095594;28;20108;-56
2022/05/20 08:25:06;;;;;;;8.45;3.80;;;26.70;48.00;;;;;;5096388;28;20028;-56
2022/05/20 08:27:32;;;;;;;19.75;5.25;;;27.00;46.30;;;;;;5091303;28;20066;-55
2022/05/20 08:30:03;;;;;;;8.90;3.88;;;27.20;45.90;;;;;;5091232;28;20051;-55
2022/05/20 08:32:30;;;;;;;13.55;4.65;;;27.10;45.50;;;;;;5095288;28;20043;-55
2022/05/20 08:34:56;;;;;;;16.83;5.15;;;27.40;44.40;;;;;;5096632;28;20028;-55
2022/05/20 08:37:22;;;;;;;10.85;4.57;;;27.80;46.60;;;;;;5095213;28;20040;-55
2022/05/20 08:39:49;;;;;;;10.95;4.00;;;27.80;45.60;;;;;;5096133;28;20477;-55
2022/05/20 08:42:20;;;;;;;11.32;4.80;;;28.10;44.80;;;;;;5093088;28;20020;-55
2022/05/20 08:44:47;;;;;;;25.90;5.55;;;28.00;42.50;;;;;;5096474;28;20063;-55
2022/05/20 08:47:27;;;;;;;14.93;5.30;;;28.30;41.10;;;;;;5093522;28;20039;-55
2022/05/20 08:50:00;;;;;;;18.08;5.28;;;28.30;42.50;;;;;;5085249;28;20485;-55
2022/05/20 08:52:27;;;;;;;16.30;6.00;;;28.50;42.50;;;;;;5089638;28;20051;-55
2022/05/20 08:54:53;;;;;;;16.63;5.35;;;28.70;44.70;;;;;;5090972;28;20142;-55
2022/05/20 08:57:23;;;;;;;17.88;6.18;;;28.60;42.30;;;;;;5082634;28;20036;-55
2022/05/20 08:59:50;;;;;;;18.05;6.00;;;28.30;40.30;;;;;;5087767;28;20024;-55
2022/05/20 09:02:20;;;;;;;17.90;5.53;;;27.90;40.60;;;;;;5090207;28;20465;-55
2022/05/20 09:04:47;;;;;;;18.60;6.63;;;28.10;42.30;;;;;;5090827;28;20063;-55
2022/05/20 09:07:15;;;;;;;18.23;6.43;;;28.20;41.50;;;;;;5084112;28;20024;-55
2022/05/20 09:09:44;;;;;;;30.27;7.70;;;28.40;37.90;;;;;;5088263;28;20089;-55
2022/05/20 09:12:11;;;;;;;10.50;4.45;;;29.20;40.50;;;;;;5082693;28;20529;-55
2022/05/20 09:29:25;;;;;;;14.80;4.30;;;30.20;35.40;;;;;;5078285;28;20032;-55
2022/05/20 09:32:00;;;;;;;24.42;5.75;;;30.80;30.10;;;;;;5070394;28;20043;-55
2022/05/20 09:34:26;;;;;;;8.77;2.45;;;30.80;29.60;;;;;;5072000;28;20025;-55
2022/05/20 09:37:05;;;;;;;8.35;2.60;;;30.70;26.00;;;;;;5074871;28;20132;-55
2022/05/20 09:39:37;;;;;;;9.07;4.18;;;30.30;21.30;;;;;;5074598;28;20444;-55
2022/05/20 09:42:24;;;;;;;20.10;4.55;;;31.00;25.00;;;;;;5074106;28;20028;-55
2022/05/20 09:44:53;;;;;;;17.33;4.13;;;31.60;27.70;;;;;;5067869;28;20036;-55
2022/05/20 09:47:40;;;;;;;25.52;5.18;;;31.20;25.30;;;;;;5068410;28;20036;-58
2022/05/20 09:50:37;;;;;;;13.32;3.85;;;31.60;24.10;;;;;;5075254;28;20095;-56
2022/05/20 09:53:26;;;;;;;16.40;4.82;;;31.80;24.80;;;;;;5055962;28;20048;-57
2022/05/20 09:56:32;;;;;;;13.90;4.63;;;32.10;24.30;;;;;;5064407;28;20086;-57
2022/05/20 09:59:19;;;;;;;17.25;4.53;;;32.10;24.30;;;;;;5061432;28;20037;-57
2022/05/20 10:02:13;;;;;;;13.25;2.97;;;31.60;25.40;;;;;;5066284;28;20021;-57
2022/05/20 10:04:48;;;;;;;13.13;3.28;;;32.60;26.10;;;;;;5061487;28;20313;-57
2022/05/20 10:07:19;;;;;;;13.27;3.30;;;33.10;25.50;;;;;;5069072;28;20508;-57
2022/05/20 10:09:58;;;;;;;19.20;4.68;;;33.00;25.10;;;;;;5075265;28;20025;-56
2022/05/20 10:12:34;;;;;;;16.43;3.63;;;33.70;27.20;;;;;;5068491;28;20021;-56
2022/05/20 10:15:27;;;;;;;11.85;3.08;;;33.20;24.40;;;;;;5069472;28;20029;-57
2022/05/20 10:18:03;;;;;;;11.30;3.40;;;32.90;25.50;;;;;;5064704;28;20024;-57
2022/05/20 10:20:34;;;;;;;14.68;5.35;;;33.60;27.10;;;;;;5061477;28;20085;-57
2022/05/20 10:23:20;;;;;;;14.70;3.72;;;33.30;24.70;;;;;;5063467;28;20029;-57
2022/05/20 10:25:55;;;;;;;21.45;5.20;;;33.50;26.50;;;;;;5070052;28;20553;-57
2022/05/20 10:34:21;;;;;;;26.38;7.40;;;33.60;27.40;;;;;;5067637;28;20033;-57
2022/05/20 10:37:06;;;;;;;15.50;4.90;;;33.50;23.20;;;;;;5073265;28;20141;-57
2022/05/20 10:40:14;;;;;;;13.10;3.90;;;32.90;26.10;;;;;;5065852;28;20032;-57
2022/05/20 10:43:17;;;;;;;17.60;3.83;;;32.60;22.60;;;;;;5090535;28;20368;-56
2022/05/20 10:48:50;;;;;;;7.93;2.33;;;32.20;24.50;;;;;;5054765;28;20144;-56
2022/05/20 10:51:41;;;;;;;8.73;3.13;;;31.80;26.70;;;;;;5074597;28;20020;-56
2022/05/20 10:54:19;;;;;;;6.68;2.40;;;31.70;25.90;;;;;;5074625;28;20037;-56
2022/05/20 10:56:57;;;;;;;14.60;3.00;;;31.20;27.00;;;;;;5067702;28;20035;-56
2022/05/20 10:59:55;;;;;;;17.80;4.25;;;30.70;30.40;;;;;;5074362;28;20029;-56
2022/05/20 11:02:42;;;;;;;12.80;3.35;;;30.70;31.50;;;;;;5074059;28;20025;-56
2022/05/20 11:05:32;;;;;;;6.15;2.47;;;30.80;28.60;;;;;;5073373;28;20059;-56
2022/05/20 11:08:12;;;;;;;7.90;2.00;;;30.80;28.60;;;;;;5073254;28;20037;-56
2022/05/20 11:10:59;;;;;;;7.50;2.88;;;31.00;29.70;;;;;;5073559;28;20405;-56
2022/05/20 11:14:00;;;;;;;8.10;2.55;;;31.20;24.80;;;;;;5070033;28;20020;-56
2022/05/20 11:16:45;;;;;;;12.43;3.33;;;31.40;28.30;;;;;;5065720;28;20044;-56
2022/05/20 11:19:43;;;;;;;6.57;2.00;;;31.70;26.00;;;;;;5071870;28;20064;-57
2022/05/20 11:22:44;;;;;;;4.22;1.80;;;32.30;27.90;;;;;;5067260;28;20052;-56
2022/05/20 11:25:16;;;;;;;5.80;1.90;;;32.50;23.80;;;;;;5062878;28;20033;-56
2022/05/20 11:28:06;;;;;;;6.20;2.70;;;32.60;23.00;;;;;;5056607;28;20041;-56
2022/05/20 11:31:00;;;;;;;5.03;2.10;;;32.80;24.60;;;;;;5073100;28;20032;-56
2022/05/20 11:34:05;;;;;;;4.93;2.15;;;32.70;24.30;;;;;;5059682;28;20033;-56
2022/05/20 11:37:02;;;;;;;16.52;5.00;;;33.30;23.60;;;;;;5057758;28;20044;-56
2022/05/20 11:40:22;;;;;;;10.57;3.35;;;33.90;24.00;;;;;;5069730;28;20037;-56
2022/05/20 11:42:58;;;;;;;16.30;3.33;;;34.00;22.80;;;;;;5074256;28;20036;-56
2022/05/20 11:45:49;;;;;;;9.48;2.30;;;34.60;22.80;;;;;;5058483;28;20094;-56
2022/05/20 11:48:48;;;;;;;13.32;3.03;;;34.60;22.00;;;;;;5074405;28;20352;-55
2022/05/20 11:51:37;;;;;;;8.30;1.88;;;35.10;23.60;;;;;;5072816;28;20551;-55
2022/05/20 11:54:31;;;;;;;7.40;1.90;;;35.10;22.70;;;;;;5079988;28;20036;-55
2022/05/20 11:57:05;;;;;;;14.68;2.58;;;35.00;22.40;;;;;;5071439;28;20073;-55
2022/05/20 11:59:41;;;;;;;7.75;2.38;;;34.50;24.60;;;;;;5073057;28;20470;-56
2022/05/20 12:02:19;;;;;;;4.05;1.90;;;33.60;22.70;;;;;;5072998;28;20737;-56
2022/05/20 12:04:51;;;;;;;23.38;5.03;;;34.00;22.60;;;;;;5071515;28;20669;-55
2022/05/20 12:07:23;;;;;;;7.47;2.10;;;34.00;21.80;;;;;;5072709;28;20036;-55
2022/05/20 12:09:52;;;;;;;4.38;2.20;;;34.30;23.90;;;;;;5057888;28;20048;-56
2022/05/20 12:13:06;;;;;;;5.18;1.90;;;34.70;21.90;;;;;;5073175;28;20589;-56
2022/05/20 12:15:45;;;;;;;5.00;2.28;;;35.10;23.80;;;;;;5062787;28;20040;-56
2022/05/20 12:24:36;;;;;;;18.67;4.15;;;34.80;23.70;;;;;;5074237;28;20032;-56
2022/05/20 12:27:08;;;;;;;7.07;2.03;;;34.60;21.40;;;;;;5074745;28;20021;-55
2022/05/20 12:29:37;;;;;;;27.55;5.22;;;34.10;22.00;;;;;;5076857;28;20106;-55
2022/05/20 12:32:29;;;;;;;15.73;5.30;;;34.10;24.10;;;;;;5074925;28;20036;-56
2022/05/20 12:35:29;;;;;;;7.95;3.10;;;34.50;24.20;;;;;;5072709;28;20104;-55
2022/05/20 12:38:31;;;;;;;11.90;3.67;;;33.00;22.70;;;;;;5073333;28;20103;-55
2022/05/20 12:40:59;;;;;;;11.57;3.40;;;33.50;23.60;;;;;;5033322;28;20120;-55
2022/05/20 12:43:45;;;;;;;7.97;2.97;;;33.40;23.10;;;;;;5033422;28;20041;-55
2022/05/20 12:46:18;;;;;;;11.32;3.50;;;33.70;25.60;;;;;;5026382;28;20073;-55
2022/05/20 12:48:44;;;;;;;7.22;2.92;;;33.90;24.40;;;;;;5033964;28;20079;-56
2022/05/20 12:51:10;;;;;;;14.57;4.57;;;34.30;25.20;;;;;;5032303;28;20057;-55
2022/05/20 12:53:41;;;;;;;18.00;4.65;;;34.30;24.50;;;;;;5024471;28;20044;-56
2022/05/20 12:56:25;;;;;;;10.10;2.70;;;34.50;26.40;;;;;;5033227;28;20128;-56
2022/05/20 12:58:51;;;;;;;22.02;5.40;;;34.00;23.50;;;;;;5032405;28;20069;-55
2022/05/20 13:01:18;;;;;;;34.28;5.70;;;33.80;24.60;;;;;;5033140;28;20041;-56
2022/05/20 13:03:46;;;;;;;22.67;5.43;;;33.00;24.60;;;;;;5029954;28;20026;-56
2022/05/20 13:06:22;;;;;;;14.55;3.45;;;33.20;24.70;;;;;;5020583;28;20380;-56
2022/05/20 13:08:55;;;;;;;18.25;3.97;;;33.30;24.00;;;;;;5017256;28;20073;-56
2022/05/20 13:11:23;;;;;;;12.73;3.58;;;32.10;24.70;;;;;;5029191;28;20032;-56
2022/05/20 13:13:57;;;;;;;21.10;4.72;;;31.70;26.50;;;;;;5029516;28;20046;-56
2022/05/20 13:16:24;;;;;;;9.70;3.67;;;32.10;26.10;;;;;;5069737;28;20031;-56
2022/05/20 13:19:00;;;;;;;12.00;3.00;;;33.00;26.80;;;;;;5068012;28;20021;-55
2022/05/20 13:21:34;;;;;;;8.15;3.00;;;32.30;25.80;;;;;;5072346;28;20028;-55
2022/05/20 13:24:15;;;;;;;19.45;4.40;;;32.50;25.30;;;;;;5059289;28;20375;-56
2022/05/20 13:26:42;;;;;;;11.32;3.35;;;32.70;26.50;;;;;;5072289;28;20048;-55
2022/05/20 13:29:18;;;;;;;12.15;4.18;;;32.50;25.20;;;;;;5074171;28;20037;-55
2022/05/20 13:31:44;;;;;;;9.82;3.08;;;32.60;25.20;;;;;;5073471;28;20032;-56
2022/05/20 13:34:13;;;;;;;13.95;5.50;;;32.70;26.40;;;;;;5075127;28;20035;-55
2022/05/20 13:36:44;;;;;;;14.13;3.85;;;31.90;26.20;;;;;;5075199;28;20056;-55
2022/05/20 13:39:23;;;;;;;10.13;3.08;;;32.10;28.10;;;;;;5075109;28;20035;-55
2022/05/20 13:41:50;;;;;;;13.27;3.53;;;32.20;26.10;;;;;;5074559;28;20076;-55
2022/05/20 13:44:16;;;;;;;11.05;2.60;;;31.90;26.90;;;;;;5075022;28;20020;-56
2022/05/20 13:49:35;;;;;;;10.15;2.90;;;32.10;27.50;;;;;;5075273;28;20036;-55
2022/05/20 13:52:11;;;;;;;6.22;2.40;;;32.20;28.60;;;;;;5074996;28;20066;-55
2022/05/20 13:54:58;;;;;;;8.50;2.70;;;32.10;26.40;;;;;;5074676;28;20025;-55
2022/05/20 13:57:49;;;;;;;25.65;5.57;;;31.30;25.70;;;;;;5075355;28;20036;-55
2022/05/20 14:00:40;;;;;;;19.88;3.75;;;30.90;27.50;;;;;;5074340;28;20041;-55
2022/05/20 14:03:16;;;;;;;15.18;3.22;;;31.30;29.10;;;;;;5075070;28;20032;-55
2022/05/20 14:05:57;;;;;;;10.57;3.28;;;31.70;30.00;;;;;;5075104;28;20020;-55
2022/05/20 14:08:24;;;;;;;24.25;4.85;;;31.90;30.00;;;;;;5074843;28;20478;-55